Flight Track Log - Related Links

Times and Time Zones

All times are in EDT time to prevent confusion due to time zone crossing. See the TRS362 flight status page for this flight to view local times or setup timezone preferences in your user account.

Time Position Orientation Groundspeed Altitude Reporting Facility
EDT Latitude Longitude Course Direction KTS MPH feet Rate Location/Type
Mon 10:20:32 AM 36.0561 -115.2592 155° Southeast 331 381 5,300  Level Los Angeles Center
Mon 10:22:00 AM 35.9193 -115.2797 161° South  Level FlightAware Approximate
Mon 10:23:37 AM 35.8956 -115.1661 82° East 335 386 13,300  Level Los Angeles Center
Mon 10:25:38 AM 35.9033 -114.9022 88° East 388 447 18,600 2,757 Climbing Albuquerque Center
Mon 10:26:42 AM 35.9064 -114.7314 89° East 417 480 21,800 2,432 Climbing Los Angeles Center
Mon 10:28:43 AM 35.9139 -114.4386 88° East 429 494 26,100 1,822 Climbing Albuquerque Center
Mon 10:29:00 AM 35.8782 -114.3966 82° East  Level FlightAware Approximate
Mon 10:30:00 AM 35.9222 -114.2706 90° East  Level Estimated
Mon 10:30:49 AM 35.9186 -114.1317 90° East 450 518 29,300  Level Los Angeles Center
Mon 10:31:51 AM 35.9219 -113.9711 88° East 466 536 30,400 1,161 Climbing Los Angeles Center
Mon 10:32:53 AM 35.9089 -113.8067 96° East 482 555 31,700 1,366 Climbing Los Angeles Center
Mon 10:33:54 AM 35.8831 -113.6433 101° East 485 558 33,200 1,561 Climbing Los Angeles Center
Mon 10:34:56 AM 35.8533 -113.4575 101° East 479 551 34,900 1,548 Climbing Los Angeles Center
Mon 10:35:58 AM 35.8272 -113.2961 101° East 481 554 36,400 1,016 Climbing Los Angeles Center
Mon 10:37:00 AM 35.8011 -113.1372 101° East 475 547 37,000 293 Climbing Los Angeles Center
Mon 10:38:01 AM 35.7753 -112.9778 101° East 474 545 37,000  Level Los Angeles Center
Mon 10:40:05 AM 35.7233 -112.6608 101° East 471 542 37,000  Level Los Angeles Center
Mon 10:41:06 AM 35.6964 -112.5033 102° East 470 541 37,000  Level Los Angeles Center
Mon 10:42:08 AM 35.6706 -112.3456 101° East 470 541 37,000  Level Los Angeles Center
Mon 10:44:11 AM 35.6100 -111.9969 102° East 473 544 37,000  Level Los Angeles Center
Mon 10:45:13 AM 35.5889 -111.8375 99° East 475 547 37,000  Level Los Angeles Center
Mon 10:46:15 AM 35.5858 -111.6753 91° East 479 551 37,000  Level Los Angeles Center
Mon 10:47:16 AM 35.5808 -111.5122 92° East 478 550 37,000  Level Albuquerque Center
Mon 10:48:17 AM 35.5750 -111.3200 92° East 478 550 37,000  Level Albuquerque Center
Mon 10:49:19 AM 35.5703 -111.1636 92° East 479 551 37,000  Level Albuquerque Center
Mon 10:50:21 AM 35.5667 -111.0067 92° East 480 552 37,000  Level Albuquerque Center
Mon 10:52:25 AM 35.5514 -110.6642 93° East 484 557 37,000  Level Albuquerque Center
Mon 10:54:00 AM 35.5437 -110.4493 92° East  Level FlightAware Approximate
Mon 10:55:30 AM 35.5342 -110.1486 94° East 473 544 37,000  Level Albuquerque Center
Mon 10:56:32 AM 35.5289 -109.9964 92° East 469 540 37,000  Level Albuquerque Center
Mon 10:57:33 AM 35.5211 -109.8200 93° East 466 536 37,000  Level Albuquerque Center
Mon 10:58:35 AM 35.5150 -109.6686 93° East 465 535 37,000  Level Albuquerque Center
Mon 10:59:37 AM 35.5069 -109.4906 93° East 467 537 37,000  Level Albuquerque Center
Mon 11:00:39 AM 35.4997 -109.3378 93° East 470 541 37,000  Level Albuquerque Center
Mon 11:01:00 AM 35.5026 -109.5001 94° East  Level FlightAware Approximate
Mon 11:01:41 AM 35.4922 -109.1856 93° East 469 540 37,000  Level Albuquerque Center
Mon 11:03:00 AM 35.4760 -108.9817 96° East  Level FlightAware Approximate
Mon 11:03:45 AM 35.4775 -108.8578 96° East 467 537 37,000  Level Albuquerque Center
Mon 11:05:00 AM 35.4867 -108.6637 87° East  Level FlightAware Approximate
Mon 11:06:50 AM 35.5092 -108.3519 86° East 468 539 37,000  Level Albuquerque Center
Mon 11:08:00 AM 35.5129 -108.1705 88° East  Level Estimated
Mon 11:08:54 AM 35.5286 -108.0200 88° East 471 542 37,000  Level Albuquerque Center
Mon 11:09:56 AM 35.5369 -107.8661 86° East 472 543 37,000  Level Albuquerque Center
Mon 11:10:58 AM 35.5464 -107.6864 86° East 473 544 37,000  Level Albuquerque Center
Mon 11:12:00 AM 35.5542 -107.5331 86° East 471 542 37,000  Level Albuquerque Center
Mon 11:12:00 AM 35.5401 -107.5763 86° East  Level FlightAware Approximate
Mon 11:13:02 AM 35.5633 -107.3533 86° East 473 544 37,000  Level Albuquerque Center
Mon 11:15:00 AM 35.5691 -107.0469 85° East  Level FlightAware Approximate
Mon 11:16:08 AM 35.5878 -106.8806 85° East 477 549 37,000  Level Albuquerque Center
Mon 11:18:12 AM 35.6053 -106.5219 86° East 474 545 37,000  Level Albuquerque Center
Mon 11:20:16 AM 35.6211 -106.1994 86° East 471 542 37,000  Level Albuquerque Center
Mon 11:21:18 AM 35.6261 -106.0364 88° East 474 545 37,000  Level Albuquerque Center
Mon 11:22:20 AM 35.6328 -105.8558 87° East 471 542 37,000  Level Albuquerque Center
Mon 11:23:22 AM 35.6394 -105.7153 87° East 471 542 37,000  Level Albuquerque Center
Mon 11:24:24 AM 35.6450 -105.5311 88° East 471 542 37,000  Level Albuquerque Center
Mon 11:25:26 AM 35.6492 -105.3697 88° East 468 539 37,000 323 Level Albuquerque Center
Mon 11:27:00 AM 35.6492 -105.1260 97° East  Level FlightAware Approximate
Mon 11:30:36 AM 35.5897 -104.5269 98° East 480 552 39,000  Level Albuquerque Center
Mon 11:32:00 AM 35.5867 -104.3098 91° East  Level Estimated
Mon 11:34:00 AM 35.5300 -104.0499 97° East  Level FlightAware Approximate
Mon 11:35:00 AM 35.5122 -103.8964 98° East  Level FlightAware Approximate
Mon 11:35:46 AM 35.4939 -103.7017 92° East 480 552 39,000  Level Albuquerque Center
Mon 11:36:00 AM 35.4942 -103.7430 98° East  Level FlightAware Approximate
Mon 11:36:48 AM 35.4753 -103.5383 98° East 479 551 39,000  Level Albuquerque Center
Mon 11:37:50 AM 35.4778 -103.3733 89° East 479 551 39,000  Level Albuquerque Center
Mon 11:38:52 AM 35.4828 -103.1789 88° East 483 556 39,000  Level Albuquerque Center
Mon 11:39:00 AM 35.5658 -103.2242 91° East  Level Estimated
Mon 11:40:00 AM 35.5620 -103.0692 92° East  Level Estimated
Mon 11:40:00 AM 35.4211 -103.0205 116° Southeast  Level FlightAware Approximate
Mon 11:40:56 AM 35.4875 -102.8439 116° Southeast 486 559 39,000  Level Albuquerque Center
Mon 11:41:00 AM 35.5580 -102.9141 92° East  Level Estimated
Mon 11:41:57 AM 35.4897 -102.6767 89° East 486 559 39,000  Level Albuquerque Center
Mon 11:44:00 AM 35.4813 -102.3592 98° East  Level Estimated
Mon 11:45:03 AM 35.4967 -102.1831 98° East 479 551 39,000  Level Albuquerque Center
Mon 11:46:05 AM 35.4975 -102.0181 90° East 481 554 39,000  Level Albuquerque Center
Mon 11:48:00 AM 35.4877 -101.7213 92° East  Level Estimated
Mon 11:49:10 AM 35.5039 -101.4842 92° East 484 557 39,000  Level Albuquerque Center
Mon 11:51:14 AM 35.5050 -101.1500 90° East 486 559 39,000  Level Albuquerque Center
Mon 11:53:17 AM 35.5056 -100.8200 90° East 483 556 39,000  Level Albuquerque Center
Mon 11:54:19 AM 35.5050 -100.6542 90° East 485 558 39,000  Level Albuquerque Center
Mon 11:56:03 AM 35.5072 -100.3536 89° East 462 532 39,000  Level Fort Worth Center
Mon 11:56:22 AM 35.5042 -100.3272 98° East 480 552 39,000  Level Albuquerque Center
Mon 11:58:03 AM 35.5061 -100.0272 89° East 472 543 39,000  Level Fort Worth Center
Mon 11:58:26 AM 35.5014 -99.9669 95° East 481 554 39,000  Level Albuquerque Center
Mon 11:59:28 AM 35.5011 -99.8022 90° East 482 555 39,000  Level Albuquerque Center
Mon 12:02:03 PM 35.4969 -99.3869 91° East 482 555 39,000  Level Fort Worth Center
Mon 12:03:03 PM 35.4931 -99.2236 92° East 482 555 39,000  Level Fort Worth Center
Mon 12:05:03 PM 35.4892 -98.8972 91° East 477 549 39,000  Level Fort Worth Center
Mon 12:06:03 PM 35.4847 -98.7342 92° East 477 549 39,000  Level Fort Worth Center
Mon 12:07:03 PM 35.4822 -98.5683 91° East 477 549 39,000  Level Fort Worth Center
Mon 12:08:03 PM 35.4794 -98.4053 91° East 477 549 39,000  Level Fort Worth Center
Mon 12:09:03 PM 35.4764 -98.2419 91° East 477 549 39,000  Level Fort Worth Center
Mon 12:10:03 PM 35.4733 -98.0789 91° East 477 549 39,000  Level Fort Worth Center
Mon 12:12:03 PM 35.4642 -97.7500 92° East 477 549 39,000  Level Fort Worth Center
Mon 12:13:03 PM 35.4603 -97.5869 92° East 477 549 39,000  Level Fort Worth Center
Mon 12:15:03 PM 35.4500 -97.2481 92° East 489 563 39,000  Level Fort Worth Center
Mon 12:17:03 PM 35.4386 -96.8989 92° East 495 570 39,000  Level Fort Worth Center
Mon 12:19:00 PM 35.4226 -96.5985 93° East  Level FlightAware Approximate
Mon 12:24:03 PM 35.3975 -95.7633 94° East 472 543 39,000  Level Fort Worth Center
Mon 12:25:44 PM 35.3842 -95.4733 93° East 472 543 39,000  Level Memphis Center
Mon 12:26:00 PM 35.3759 -95.5194 93° East  Level FlightAware Approximate
Mon 12:26:44 PM 35.3764 -95.3097 93° East 472 543 39,000  Level Memphis Center
Mon 12:27:00 PM 35.3685 -95.3653 93° East  Level FlightAware Approximate
Mon 12:27:44 PM 35.3681 -95.1489 94° East 478 550 39,000  Level Memphis Center
Mon 12:28:00 PM 35.3608 -95.2113 93° East  Level FlightAware Approximate
Mon 12:28:44 PM 35.3594 -94.9856 94° East 478 550 39,000  Level Memphis Center
Mon 12:29:00 PM 35.3530 -95.0573 94° East  Level FlightAware Approximate
Mon 12:29:44 PM 35.3531 -94.8222 93° East 478 550 39,000  Level Memphis Center
Mon 12:31:00 PM 35.3406 -94.6285 94° East  Level FlightAware Approximate
Mon 12:31:44 PM 35.3372 -94.4981 94° East 478 550 39,000  Level Memphis Center
Mon 12:33:00 PM 35.3266 -94.3042 94° East  Level FlightAware Approximate
Mon 12:33:44 PM 35.3225 -94.1717 94° East 478 550 39,000  Level Memphis Center
Mon 12:34:44 PM 35.3128 -94.0108 94° East 478 550 39,000  Level Memphis Center
Mon 12:36:00 PM 35.3006 -93.8172 94° East  Level FlightAware Approximate
Mon 12:36:44 PM 35.2958 -93.7175 94° East 478 550 39,000  Level Memphis Center
Mon 12:38:00 PM 35.2825 -93.5240 95° East  Level FlightAware Approximate
Mon 12:39:44 PM 35.2647 -93.2156 95° East 464 534 39,000  Level Memphis Center
Mon 12:40:44 PM 35.2536 -93.0575 95° East 465 535 39,000  Level Memphis Center
Mon 12:42:00 PM 35.2397 -92.8642 95° East  Level FlightAware Approximate
Mon 12:42:44 PM 35.2331 -92.7364 95° East 465 535 39,000  Level Memphis Center
Mon 12:43:44 PM 35.2192 -92.5733 96° East 465 535 39,000  Level Memphis Center
Mon 12:44:44 PM 35.2114 -92.4333 94° East 465 535 39,000  Level Memphis Center
Mon 12:45:00 PM 35.2069 -92.4554 95° East  Level FlightAware Approximate
Mon 12:45:44 PM 35.2017 -92.2503 94° East 479 551 39,000  Level Memphis Center
Mon 12:46:44 PM 35.1894 -92.0872 95° East 485 558 39,000  Level Memphis Center
Mon 12:47:44 PM 35.1769 -91.9244 95° East 480 552 39,000  Level Memphis Center
Mon 12:48:44 PM 35.1622 -91.7617 96° East 480 552 39,000  Level Memphis Center
Mon 12:49:44 PM 35.1494 -91.5964 95° East 485 558 39,000  Level Memphis Center
Mon 12:50:44 PM 35.1383 -91.4361 95° East 476 548 39,000  Level Memphis Center
Mon 12:51:44 PM 35.1250 -91.2736 96° East 476 548 39,000  Level Memphis Center
Mon 12:52:44 PM 35.1114 -91.1111 96° East 481 554 39,000 -33 Level Memphis Center
Mon 12:54:00 PM 35.0822 -90.9197 96° East  Level FlightAware Approximate
Mon 12:54:44 PM 35.0858 -90.8061 96° East 481 554 38,900  Level Memphis Center
Mon 12:55:44 PM 35.0739 -90.6439 95° East 481 554 37,800 -950 Descending Memphis Center
Mon 12:56:44 PM 35.0594 -90.4864 96° East 481 554 37,000 -267 Descending Memphis Center
Mon 12:58:44 PM 35.0344 -90.1719 95° East 470 541 37,000  Level Memphis Center
Mon 12:59:44 PM 35.0194 -89.9969 96° East 470 541 37,000  Level Memphis Center
Mon 01:00:44 PM 35.0000 -89.8400 99° East 470 541 37,000  Level Memphis Center
Mon 01:01:44 PM 34.9761 -89.6728 100° East 479 551 37,000  Level Memphis Center
Mon 01:02:44 PM 34.9481 -89.5133 102° East 485 558 37,000  Level Memphis Center
Mon 01:04:00 PM 34.9193 -89.3229 100° East  Level FlightAware Approximate
Mon 01:04:44 PM 34.9019 -89.2150 100° East 474 545 37,000  Level Memphis Center
Mon 01:05:44 PM 34.8775 -89.0558 101° East 469 540 37,000  Level Memphis Center
Mon 01:06:44 PM 34.8528 -88.8969 101° East 475 547 37,000  Level Memphis Center
Mon 01:07:44 PM 34.8278 -88.7381 101° East 475 547 37,000  Level Memphis Center
Mon 01:08:44 PM 34.8022 -88.5614 100° East 475 547 37,000 -300 Level Memphis Center
Mon 01:09:44 PM 34.7769 -88.4078 101° East 475 547 36,400 -750 Descending Memphis Center
Mon 01:10:44 PM 34.7517 -88.2542 101° East 470 541 35,500 -467 Descending Memphis Center
Mon 01:12:00 PM 34.7210 -88.0643 101° East  Level FlightAware Approximate
Mon 01:12:44 PM 34.7019 -87.9319 101° East 485 558 35,000  Level Memphis Center
Mon 01:14:00 PM 34.6698 -87.7426 102° East  Level FlightAware Approximate
Mon 01:14:44 PM 34.6494 -87.6156 102° East 475 547 33,100  Level Memphis Center
Mon 01:15:44 PM 34.6211 -87.4725 103° East 490 564 33,000 -45 Descending Memphis Center
Mon 01:16:58 PM 34.5889 -87.2658 101° East 481 554 33,000  Level Atlanta Center
Mon 01:18:00 PM 34.5571 -87.1131 104° East  Level FlightAware Approximate
Mon 01:18:58 PM 34.5317 -86.9686 104° East 476 548 33,000  Level Atlanta Center
Mon 01:19:58 PM 34.4997 -86.8089 104° East 476 548 33,000  Level Atlanta Center
Mon 01:20:58 PM 34.4700 -86.6467 102° East 476 548 33,000 -433 Level Atlanta Center
Mon 01:22:58 PM 34.4075 -86.3275 104° East 476 548 31,700 -767 Descending Atlanta Center
Mon 01:23:00 PM 34.4068 -86.3777 104° East  Level FlightAware Approximate
Mon 01:23:58 PM 34.3747 -86.1731 104° East 476 548 30,700  Level Atlanta Center
Mon 01:25:00 PM 34.3383 -86.0364 107° East  Level FlightAware Approximate
Mon 01:28:58 PM 34.2653 -85.3558 131° Southeast 475 547 21,300  Level Atlanta Center
Mon 01:31:07 PM 34.1333 -85.0833 120° Southeast 408 470 15,500 -1,950 Descending Atlanta TRACON
Mon 01:32:00 PM 34.1500 -85.1059 90° East  Level FlightAware Approximate
Mon 01:32:58 PM 34.0000 -84.9108 133° Southeast 392 451 13,500  Level Atlanta Center
Mon 01:33:00 PM 34.0751 -85.0053 131° Southeast  Level FlightAware Approximate
Mon 01:33:58 PM 33.9317 -84.8200 132° Southeast 372 428 12,600  Level Atlanta Center
Mon 01:34:00 PM 34.0004 -84.9025 131° Southeast  Level FlightAware Approximate
Mon 01:34:58 PM 33.8714 -84.7494 136° Southeast 325 374 12,000  Level Atlanta Center
Mon 01:35:58 PM 33.8175 -84.6789 133° Southeast 291 335 12,000  Level Atlanta Center
Mon 01:37:07 PM 33.7500 -84.6000 136° Southeast 259 298 12,000  Level Atlanta TRACON
Mon 01:38:07 PM 33.7333 -84.5333 107° East 273 314 12,000 -867 Level Atlanta TRACON
Mon 01:40:07 PM 33.7333 -84.3500 90° East 263 303 9,400 -1,469 Descending Atlanta TRACON
Mon 01:42:00 PM 33.6333 -84.4167 North  Level FlightAware Approximate
Mon 01:42:08 PM 33.7333 -84.1833 North 247 284 6,100  Level Atlanta TRACON
Mon 01:43:07 PM 33.7333 -84.1000 90° East 220 253 5,800 -276 Descending Atlanta TRACON
Mon 01:45:00 PM 33.6538 -84.3701 243° Southwest  Level Estimated
Mon 01:46:07 PM 33.6833 -83.9500 243° Southwest 188 216 5,000  Level Atlanta TRACON
Mon 01:47:07 PM 33.6500 -83.9667 203° Southwest 182 209 5,000  Level Atlanta TRACON
Mon 01:48:13 PM 33.6500 -84.0333 270° West 181 208 5,000  Level Atlanta TRACON
Mon 01:50:07 PM 33.6500 -84.1500 270° West 179 206 5,000 -436 Level Atlanta TRACON
Mon 01:52:07 PM 33.6500 -84.2667 270° West 184 212 3,300 -900 Descending Atlanta TRACON
Mon 01:53:07 PM 33.6500 -84.3333 270° West 172 198 2,300 -893 Descending Atlanta TRACON
Mon 01:54:08 PM 33.6500 -84.3833 270° West 136 157 1,500 -787 Descending Atlanta TRACON

Login

Don't have an account? Register now (free) for customized features, flight alerts, and more!